Terminal Aerodrome Forecast
Issued by NWS Binghamton, NY

Home | Current Version | Previous Version | Text Only | Print | Product List | Glossary On
Versions: 1 2 3 4 5 6 7 8 9 10 11 12 13 14 15 16 17 18 19 20
000
FTUS41 KBGM 261700
TAFSYR
TAF
KSYR 261738Z 2618/2718 04005KT 3/4SM -SN OVC010
     FM270000 36007KT 3/4SM -SN OVC010
     FM270700 31007KT 3SM -SHSN OVC025=

USA.gov is the U.S. government's official web portal to all federal, state and local government web resources and services.